createdAt,value
2022-10-10T00:01:16.157Z,69.30
2022-10-10T00:03:43.644Z,69.39
2022-10-10T00:06:11.409Z,69.18
2022-10-10T00:08:38.311Z,69.59
2022-10-10T00:11:05.530Z,69.42
2022-10-10T00:13:32.635Z,69.49
2022-10-10T00:15:59.405Z,69.62
2022-10-10T00:18:26.159Z,69.74
2022-10-10T00:20:53.455Z,69.73
2022-10-10T00:23:20.619Z,69.85
2022-10-10T00:25:48.032Z,69.47
2022-10-10T00:28:15.278Z,69.40
2022-10-10T00:30:42.280Z,69.31
2022-10-10T00:33:09.091Z,69.38
2022-10-10T00:35:36.372Z,69.22
2022-10-10T00:38:03.168Z,69.17
2022-10-10T00:40:30.283Z,68.84
2022-10-10T00:42:57.052Z,68.95
2022-10-10T00:45:38.512Z,69.05
2022-10-10T00:48:20.835Z,68.83
2022-10-10T00:50:54.491Z,69.11
2022-10-10T00:53:24.226Z,69.30
2022-10-10T00:55:51.444Z,69.17
2022-10-10T00:58:18.597Z,69.19
2022-10-10T01:00:45.386Z,68.98
2022-10-10T01:03:12.209Z,68.85
2022-10-10T01:05:39.454Z,69.16
2022-10-10T01:08:06.685Z,69.07
2022-10-10T01:10:36.445Z,69.27
2022-10-10T01:13:11.433Z,69.14
2022-10-10T01:15:58.012Z,69.28
2022-10-10T01:18:38.613Z,69.04
2022-10-10T01:21:17.660Z,69.13
2022-10-10T01:24:02.181Z,69.36
2022-10-10T01:27:09.169Z,69.26
2022-10-10T01:29:45.641Z,69.33
2022-10-10T01:32:39.856Z,69.33
2022-10-10T01:35:10.697Z,69.48
2022-10-10T01:37:44.057Z,69.22
2022-10-10T01:40:32.479Z,69.88
2022-10-10T01:43:02.173Z,69.37
2022-10-10T01:45:31.323Z,69.57
2022-10-10T01:48:02.816Z,69.67
2022-10-10T01:50:30.352Z,69.60
2022-10-10T01:53:09.788Z,69.56
2022-10-10T01:55:46.689Z,69.61
2022-10-10T01:58:21.603Z,69.50
2022-10-10T02:01:21.639Z,69.73
2022-10-10T02:03:59.135Z,69.65
2022-10-10T02:06:32.655Z,69.77
2022-10-10T02:09:04.531Z,69.86
2022-10-10T02:11:35.495Z,69.97
2022-10-10T02:14:14.566Z,69.74
2022-10-10T02:16:42.997Z,70.12
2022-10-10T02:19:10.983Z,69.72
2022-10-10T02:21:39.104Z,70.17
2022-10-10T02:24:07.201Z,69.92
2022-10-10T02:26:36.939Z,70.17
2022-10-10T02:29:17.806Z,70.06
2022-10-10T02:31:50.359Z,70.09
2022-10-10T02:34:19.347Z,70.23
2022-10-10T02:36:51.482Z,70.00
2022-10-10T02:39:22.632Z,70.34
2022-10-10T02:41:50.851Z,70.12
2022-10-10T02:44:18.074Z,70.27
2022-10-10T02:46:44.914Z,70.08
2022-10-10T02:49:11.894Z,70.12
2022-10-10T02:51:39.465Z,70.08
2022-10-10T02:54:07.068Z,70.00
2022-10-10T02:56:33.783Z,70.10
2022-10-10T02:59:00.481Z,70.08
2022-10-10T03:01:27.322Z,70.18
2022-10-10T03:03:54.106Z,70.07
2022-10-10T03:06:20.849Z,69.81
2022-10-10T03:08:49.813Z,69.99
2022-10-10T03:11:16.532Z,70.02
2022-10-10T03:13:43.255Z,70.05
2022-10-10T03:16:11.137Z,69.95
2022-10-10T03:18:40.205Z,69.59
2022-10-10T03:21:14.298Z,69.71
2022-10-10T03:23:44.757Z,69.42
2022-10-10T03:26:11.573Z,69.42
2022-10-10T03:28:38.340Z,69.56
2022-10-10T03:31:05.289Z,69.73
2022-10-10T03:33:32.017Z,69.66
2022-10-10T03:35:58.821Z,69.58
2022-10-10T03:38:25.517Z,69.77
2022-10-10T03:40:52.261Z,69.43
2022-10-10T03:43:19.032Z,69.92
2022-10-10T03:45:47.580Z,69.95
2022-10-10T03:48:14.503Z,69.81
2022-10-10T03:50:44.439Z,70.11
2022-10-10T03:53:11.292Z,70.55
2022-10-10T03:55:44.891Z,70.02
2022-10-10T03:58:11.704Z,70.12
2022-10-10T04:00:38.458Z,70.32
2022-10-10T04:03:06.514Z,70.26
2022-10-10T04:05:34.766Z,70.09
2022-10-10T04:08:01.736Z,70.17
2022-10-10T04:10:28.455Z,70.29
2022-10-10T04:12:55.340Z,70.20
2022-10-10T04:15:22.034Z,70.04
2022-10-10T04:17:48.790Z,70.05
2022-10-10T04:20:15.566Z,70.11
2022-10-10T04:22:42.710Z,70.06
2022-10-10T04:25:09.808Z,70.06
2022-10-10T04:27:45.513Z,70.25
2022-10-10T04:30:12.895Z,70.13
2022-10-10T04:32:39.674Z,70.33
2022-10-10T04:35:06.727Z,69.87
2022-10-10T04:37:34.127Z,69.82
2022-10-10T04:40:00.937Z,70.16
2022-10-10T04:42:27.643Z,70.06
2022-10-10T04:44:54.697Z,70.09
2022-10-10T04:47:23.755Z,70.07
2022-10-10T04:49:50.470Z,70.08
2022-10-10T04:52:17.195Z,70.06
2022-10-10T04:54:43.934Z,70.03
2022-10-10T04:57:13.610Z,70.13
2022-10-10T04:59:40.318Z,69.89
2022-10-10T05:02:07.136Z,70.37
2022-10-10T05:04:33.902Z,70.30
2022-10-10T05:07:00.688Z,70.21
2022-10-10T05:09:27.398Z,70.29
2022-10-10T05:11:54.163Z,70.08
2022-10-10T05:14:20.900Z,70.21
2022-10-10T05:16:47.630Z,70.37
2022-10-10T05:19:14.461Z,70.33
2022-10-10T05:21:41.217Z,70.20
2022-10-10T05:24:07.904Z,70.00
2022-10-10T05:26:35.533Z,70.29
2022-10-10T05:29:05.823Z,70.32
2022-10-10T05:31:33.694Z,70.31
2022-10-10T05:34:00.645Z,70.32
2022-10-10T05:36:27.557Z,70.01
2022-10-10T05:38:54.242Z,70.38
2022-10-10T05:41:21.036Z,70.01
2022-10-10T05:43:47.746Z,70.23
2022-10-10T05:46:14.498Z,70.36
2022-10-10T05:48:41.175Z,70.17
2022-10-10T05:51:07.897Z,70.28
2022-10-10T05:53:34.650Z,70.49
2022-10-10T05:56:01.978Z,70.40
2022-10-10T05:58:28.726Z,70.62
2022-10-10T06:00:55.450Z,70.21
2022-10-10T06:03:22.164Z,70.28
2022-10-10T06:05:51.352Z,70.18
2022-10-10T06:08:18.092Z,70.46
2022-10-10T06:10:46.155Z,70.62
2022-10-10T06:13:14.366Z,70.71
2022-10-10T06:15:41.337Z,70.61
2022-10-10T06:18:08.760Z,70.77
2022-10-10T06:20:39.446Z,70.52
2022-10-10T06:23:07.658Z,70.94
2022-10-10T06:25:40.647Z,70.85
2022-10-10T06:28:08.054Z,71.05
2022-10-10T06:30:38.892Z,71.17
2022-10-10T06:33:05.623Z,71.08
2022-10-10T06:35:32.317Z,71.33
2022-10-10T06:37:59.072Z,70.93
2022-10-10T06:40:25.829Z,71.41
2022-10-10T06:42:52.970Z,71.50
2022-10-10T06:45:19.927Z,71.66
2022-10-10T06:47:46.655Z,71.52
2022-10-10T06:50:13.365Z,71.48
2022-10-10T06:52:40.863Z,71.68
2022-10-10T06:55:08.076Z,71.95
2022-10-10T06:57:34.904Z,71.89
2022-10-10T07:00:01.646Z,72.09
2022-10-10T07:02:28.570Z,71.83
2022-10-10T07:04:55.353Z,72.40
2022-10-10T07:07:22.077Z,72.22
2022-10-10T07:09:48.972Z,72.62
2022-10-10T07:12:15.764Z,72.68
2022-10-10T07:14:42.469Z,72.91
2022-10-10T07:17:09.175Z,72.94
2022-10-10T07:19:37.733Z,73.21
2022-10-10T07:22:04.924Z,73.18
2022-10-10T07:24:31.672Z,73.06
2022-10-10T07:27:03.679Z,73.12
2022-10-10T07:29:34.729Z,72.78
2022-10-10T07:32:01.425Z,72.64
2022-10-10T07:34:28.228Z,72.68
2022-10-10T07:36:54.987Z,72.68
2022-10-10T07:39:25.078Z,72.68
2022-10-10T07:41:52.140Z,72.79
2022-10-10T07:44:19.884Z,72.67
2022-10-10T07:46:47.091Z,72.59
2022-10-10T07:49:13.828Z,72.58
2022-10-10T07:51:40.517Z,72.70
2022-10-10T07:54:07.227Z,72.73
2022-10-10T07:56:33.983Z,72.62
2022-10-10T07:59:00.994Z,72.69
2022-10-10T08:01:27.888Z,72.32
2022-10-10T08:04:00.484Z,72.41
2022-10-10T08:06:27.284Z,72.50
2022-10-10T08:08:54.034Z,72.54
2022-10-10T08:11:21.917Z,72.32
2022-10-10T08:13:49.607Z,72.17
2022-10-10T08:16:16.604Z,72.32
2022-10-10T08:18:43.313Z,72.29
2022-10-10T08:21:12.563Z,71.93
2022-10-10T08:23:39.753Z,71.87
2022-10-10T08:26:08.423Z,71.82
2022-10-10T08:28:36.331Z,72.07
2022-10-10T08:31:13.834Z,72.04
2022-10-10T08:33:42.522Z,71.99
2022-10-10T08:36:11.768Z,71.92
2022-10-10T08:38:41.789Z,71.76
2022-10-10T08:41:42.812Z,71.69
2022-10-10T08:44:23.841Z,71.87
2022-10-10T08:47:03.514Z,71.61
2022-10-10T08:49:44.549Z,71.36
2022-10-10T08:52:32.835Z,71.17
2022-10-10T08:55:02.546Z,71.10
2022-10-10T08:57:33.549Z,70.81
2022-10-10T09:00:05.780Z,70.72
2022-10-10T09:02:53.189Z,70.79
2022-10-10T09:05:27.511Z,70.59
2022-10-10T09:08:34.152Z,70.50
2022-10-10T09:11:22.619Z,70.44
2022-10-10T09:13:52.337Z,70.18
2022-10-10T09:16:44.032Z,70.29
2022-10-10T09:19:28.600Z,70.43
2022-10-10T09:21:57.858Z,70.26
2022-10-10T09:24:26.019Z,70.49
2022-10-10T09:26:56.555Z,70.13
2022-10-10T09:29:32.891Z,70.38
2022-10-10T09:32:21.399Z,70.56
2022-10-10T09:34:51.060Z,70.35
2022-10-10T09:37:35.556Z,70.37
2022-10-10T09:40:28.662Z,70.43
2022-10-10T09:42:56.394Z,70.34
2022-10-10T09:45:28.373Z,70.36
2022-10-10T09:47:55.910Z,70.24
2022-10-10T09:50:23.803Z,70.18
2022-10-10T09:52:51.836Z,70.35
2022-10-10T09:55:24.453Z,70.23
2022-10-10T09:57:56.789Z,70.13
2022-10-10T10:00:29.763Z,70.16
2022-10-10T10:03:15.090Z,69.80
2022-10-10T10:05:45.000Z,70.07
2022-10-10T10:08:19.828Z,70.04
2022-10-10T10:10:46.630Z,70.03
2022-10-10T10:13:23.774Z,70.05
2022-10-10T10:15:55.431Z,69.78
2022-10-10T10:18:28.760Z,69.95
2022-10-10T10:21:08.097Z,70.01
2022-10-10T10:23:43.915Z,70.03
2022-10-10T10:26:37.077Z,70.04
2022-10-10T10:29:05.993Z,70.05
2022-10-10T10:31:44.844Z,70.02
2022-10-10T10:34:25.861Z,70.01
2022-10-10T10:37:10.407Z,69.95
2022-10-10T10:39:52.823Z,70.00
2022-10-10T10:42:27.459Z,70.08
2022-10-10T10:45:09.877Z,69.92
2022-10-10T10:47:54.998Z,70.01
2022-10-10T10:50:47.010Z,69.92
2022-10-10T10:53:41.345Z,69.84
2022-10-10T10:56:38.163Z,69.77
2022-10-10T11:02:07.240Z,69.79
2022-10-10T11:05:18.787Z,69.88
2022-10-10T11:07:46.074Z,69.93
2022-10-10T11:10:37.188Z,69.79
2022-10-10T11:13:10.010Z,69.78
2022-10-10T11:16:06.165Z,69.73
2022-10-10T11:18:43.607Z,69.69
2022-10-10T11:21:25.177Z,69.66
2022-10-10T11:24:03.264Z,69.71
2022-10-10T11:26:33.007Z,69.61
2022-10-10T11:29:42.871Z,69.69
2022-10-10T11:32:15.922Z,69.59
2022-10-10T11:34:55.486Z,69.58
2022-10-10T11:37:26.050Z,69.66
2022-10-10T11:39:55.896Z,69.52
2022-10-10T11:42:23.395Z,69.38
2022-10-10T11:44:57.329Z,69.37
2022-10-10T11:47:38.053Z,69.33
2022-10-10T11:50:18.904Z,69.41
2022-10-10T11:53:23.374Z,69.24
2022-10-10T11:55:56.048Z,69.22
2022-10-10T11:58:34.861Z,69.28
2022-10-10T12:01:12.147Z,69.14
2022-10-10T12:03:38.910Z,69.05
2022-10-10T12:06:22.282Z,69.06
2022-10-10T12:09:03.882Z,69.19
2022-10-10T12:11:43.651Z,68.99
2022-10-10T12:14:14.768Z,68.99
2022-10-10T12:16:43.727Z,68.91
2022-10-10T12:19:19.791Z,68.79
2022-10-10T12:21:54.412Z,68.81
2022-10-10T12:24:21.481Z,68.77
2022-10-10T12:26:57.393Z,68.86
2022-10-10T12:30:09.215Z,68.81
2022-10-10T12:32:46.492Z,68.93
2022-10-10T12:35:33.107Z,68.76
2022-10-10T12:38:06.151Z,68.93
2022-10-10T12:40:34.144Z,68.94
2022-10-10T12:43:18.617Z,68.79
2022-10-10T12:46:16.379Z,68.80
2022-10-10T12:48:43.660Z,69.02
2022-10-10T12:51:22.112Z,68.88
2022-10-10T12:56:43.750Z,69.02
2022-10-10T12:59:19.928Z,68.85
2022-10-10T13:01:52.304Z,68.78
2022-10-10T13:04:19.447Z,68.84
2022-10-10T13:06:47.163Z,68.72
2022-10-10T13:09:20.565Z,68.92
2022-10-10T13:11:59.602Z,68.48
2022-10-10T13:14:36.485Z,68.59
2022-10-10T13:17:11.264Z,68.58
2022-10-10T13:19:50.027Z,68.45
2022-10-10T13:22:17.482Z,68.19
2022-10-10T13:24:45.417Z,68.49
2022-10-10T13:27:18.529Z,68.16
2022-10-10T13:29:45.494Z,68.34
2022-10-10T13:32:15.433Z,68.27
2022-10-10T13:34:49.440Z,68.18
2022-10-10T13:37:17.874Z,68.39
2022-10-10T13:39:45.079Z,68.22
2022-10-10T13:42:31.713Z,68.20
2022-10-10T13:45:05.636Z,68.39
2022-10-10T13:47:52.039Z,68.18
2022-10-10T13:50:21.839Z,67.91
2022-10-10T13:52:48.624Z,68.11
2022-10-10T13:55:40.511Z,68.35
2022-10-10T13:58:15.790Z,68.08
2022-10-10T14:00:42.748Z,68.10
2022-10-10T14:03:18.754Z,68.31
2022-10-10T14:05:48.422Z,68.23
2022-10-10T14:08:25.641Z,68.45
2022-10-10T14:11:02.162Z,68.04
2022-10-10T14:13:33.733Z,68.20
2022-10-10T14:16:18.812Z,68.15
2022-10-10T14:18:46.165Z,67.93
2022-10-10T14:21:15.602Z,68.07
2022-10-10T14:23:42.318Z,68.16
2022-10-10T14:26:15.843Z,68.27
2022-10-10T14:28:43.005Z,68.15
2022-10-10T14:31:17.854Z,68.18
2022-10-10T14:33:44.594Z,68.18
2022-10-10T14:36:12.045Z,68.22
2022-10-10T14:38:41.433Z,68.35
2022-10-10T14:41:10.255Z,68.27
2022-10-10T14:43:37.054Z,68.52
2022-10-10T14:46:03.943Z,68.34
2022-10-10T14:48:30.864Z,68.43
2022-10-10T14:50:57.581Z,68.37
2022-10-10T14:53:24.492Z,68.26
2022-10-10T14:55:55.948Z,68.27
2022-10-10T14:58:23.248Z,68.70
2022-10-10T15:00:54.048Z,68.60
2022-10-10T15:03:24.776Z,68.66
2022-10-10T15:05:51.590Z,68.71
2022-10-10T15:08:19.381Z,68.98
2022-10-10T15:10:46.654Z,68.87
2022-10-10T15:13:14.104Z,69.03
2022-10-10T15:15:41.414Z,68.89
2022-10-10T15:18:25.659Z,69.11
2022-10-10T15:21:02.012Z,68.97
2022-10-10T15:23:34.261Z,69.27
2022-10-10T15:26:01.233Z,69.24
2022-10-10T15:28:28.113Z,69.27
2022-10-10T15:30:55.024Z,69.22
2022-10-10T15:33:21.867Z,69.27
2022-10-10T15:36:08.989Z,69.35
2022-10-10T15:38:37.344Z,69.44
2022-10-10T15:41:06.986Z,69.47
2022-10-10T15:43:55.736Z,69.39
2022-10-10T15:46:27.093Z,69.42
2022-10-10T15:48:56.872Z,69.66
2022-10-10T15:51:23.859Z,69.76
2022-10-10T15:53:52.046Z,69.66
2022-10-10T15:56:18.994Z,69.87
2022-10-10T15:58:45.792Z,69.87
2022-10-10T16:01:18.563Z,69.92
2022-10-10T16:03:47.593Z,69.83
2022-10-10T16:06:22.910Z,69.89
2022-10-10T16:08:59.409Z,70.29
2022-10-10T16:11:37.080Z,70.16
2022-10-10T16:14:03.844Z,70.43
2022-10-10T16:16:31.727Z,70.47
2022-10-10T16:18:59.694Z,70.49
2022-10-10T16:21:26.933Z,70.90
2022-10-10T16:23:58.133Z,70.72
2022-10-10T16:26:29.088Z,70.87
2022-10-10T16:28:56.537Z,71.21
2022-10-10T16:31:24.998Z,71.22
2022-10-10T16:33:51.841Z,71.15
2022-10-10T16:36:20.911Z,70.98
2022-10-10T16:38:57.509Z,71.27
2022-10-10T16:41:47.109Z,71.13
2022-10-10T16:44:18.368Z,71.06
2022-10-10T16:46:45.301Z,71.26
2022-10-10T16:49:16.296Z,71.34
2022-10-10T16:51:47.999Z,71.33
2022-10-10T16:54:14.728Z,71.08
2022-10-10T16:56:41.888Z,71.38
2022-10-10T16:59:08.585Z,71.38
2022-10-10T17:02:01.125Z,71.29
2022-10-10T17:04:28.109Z,71.54
2022-10-10T17:06:54.869Z,71.51
2022-10-10T17:09:22.796Z,71.47
2022-10-10T17:11:51.472Z,71.74
2022-10-10T17:14:20.018Z,72.06
2022-10-10T17:17:11.012Z,72.07
2022-10-10T17:19:33.767Z,72.26
2022-10-10T17:22:01.231Z,72.14
2022-10-10T17:24:27.978Z,72.44
2022-10-10T17:26:54.739Z,72.09
2022-10-10T17:29:23.512Z,72.38
2022-10-10T17:31:50.292Z,72.37
2022-10-10T17:34:17.017Z,72.03
2022-10-10T17:36:43.741Z,72.13
2022-10-10T17:39:10.452Z,71.97
2022-10-10T17:41:37.300Z,71.95
2022-10-10T17:44:08.386Z,71.98
2022-10-10T17:46:36.621Z,71.60
2022-10-10T17:49:05.120Z,71.94
2022-10-10T17:51:32.655Z,71.74
2022-10-10T17:54:03.469Z,72.19
2022-10-10T17:56:30.647Z,72.18
2022-10-10T17:58:59.258Z,72.58
2022-10-10T18:01:26.203Z,72.41
2022-10-10T18:03:53.030Z,72.54
2022-10-10T18:06:21.558Z,72.62
2022-10-10T18:08:52.394Z,72.65
2022-10-10T18:11:24.608Z,72.89
2022-10-10T18:13:52.001Z,73.07
2022-10-10T18:16:22.775Z,73.20
2022-10-10T18:18:51.660Z,73.09
2022-10-10T18:21:21.092Z,73.12
2022-10-10T18:23:48.261Z,73.39
2022-10-10T18:26:17.290Z,73.39
2022-10-10T18:28:47.029Z,73.32
2022-10-10T18:31:16.632Z,73.25
2022-10-10T18:33:44.804Z,73.24
2022-10-10T18:36:14.198Z,73.46
2022-10-10T18:38:41.030Z,73.62
2022-10-10T18:41:13.369Z,73.43
2022-10-10T18:43:40.703Z,73.59
2022-10-10T18:46:08.587Z,73.69
2022-10-10T18:48:36.068Z,73.76
2022-10-10T18:51:08.464Z,73.94
2022-10-10T18:53:39.728Z,73.90
2022-10-10T18:56:07.430Z,73.93
2022-10-10T18:58:36.044Z,73.74
2022-10-10T19:01:09.071Z,73.79
2022-10-10T19:03:40.065Z,73.80
2022-10-10T19:06:08.817Z,73.45
2022-10-10T19:08:35.541Z,73.64
2022-10-10T19:11:03.408Z,73.63
2022-10-10T19:13:30.683Z,73.52
2022-10-10T19:16:03.884Z,73.78
2022-10-10T19:18:30.645Z,73.22
2022-10-10T19:21:02.499Z,73.08
2022-10-10T19:23:30.153Z,73.61
2022-10-10T19:26:01.910Z,73.70
2022-10-10T19:28:29.210Z,73.76
2022-10-10T19:30:55.977Z,73.67
2022-10-10T19:33:22.954Z,73.67
2022-10-10T19:35:52.156Z,73.51
2022-10-10T19:38:19.220Z,73.67
2022-10-10T19:40:50.193Z,73.47
2022-10-10T19:43:17.681Z,72.61
2022-10-10T19:45:48.710Z,72.87
2022-10-10T19:48:15.761Z,73.06
2022-10-10T19:50:43.824Z,73.15
2022-10-10T19:53:12.939Z,73.26
2022-10-10T19:55:40.878Z,72.96
2022-10-10T19:58:07.685Z,72.96
2022-10-10T20:00:34.417Z,73.18
2022-10-10T20:03:01.145Z,72.84
2022-10-10T20:05:27.949Z,72.89
2022-10-10T20:07:54.659Z,73.08
2022-10-10T20:10:21.582Z,72.71
2022-10-10T20:12:49.140Z,73.00
2022-10-10T20:15:15.893Z,72.92
2022-10-10T20:17:42.605Z,72.81
2022-10-10T20:20:09.508Z,72.91
2022-10-10T20:22:36.215Z,72.70
2022-10-10T20:25:04.368Z,72.55
2022-10-10T20:27:34.125Z,72.43
2022-10-10T20:30:00.824Z,72.17
2022-10-10T20:32:27.549Z,72.10
2022-10-10T20:34:54.225Z,72.39
2022-10-10T20:37:20.937Z,72.25
2022-10-10T20:39:47.830Z,72.36
2022-10-10T20:42:14.678Z,72.02
2022-10-10T20:44:41.622Z,72.06
2022-10-10T20:47:08.301Z,72.13
2022-10-10T20:49:35.007Z,72.13
2022-10-10T20:52:01.745Z,72.32
2022-10-10T20:54:28.435Z,71.89
2022-10-10T20:56:55.165Z,72.06
2022-10-10T20:59:24.271Z,72.07
2022-10-10T21:01:51.120Z,71.93
2022-10-10T21:04:17.897Z,71.78
2022-10-10T21:06:44.655Z,71.64
2022-10-10T21:09:13.817Z,71.70
2022-10-10T21:11:40.681Z,71.86
2022-10-10T21:14:07.673Z,71.79
2022-10-10T21:16:39.446Z,71.86
2022-10-10T21:19:09.205Z,71.80
2022-10-10T21:21:36.607Z,71.60
2022-10-10T21:24:05.641Z,71.65
2022-10-10T21:26:32.873Z,71.61
2022-10-10T21:29:00.808Z,71.62
2022-10-10T21:31:30.080Z,71.86
2022-10-10T21:33:56.994Z,71.74
2022-10-10T21:36:25.140Z,71.66
2022-10-10T21:38:51.953Z,71.56
2022-10-10T21:41:20.308Z,71.55
2022-10-10T21:43:54.946Z,71.47
2022-10-10T21:46:24.229Z,71.17
2022-10-10T21:48:52.816Z,71.34
2022-10-10T21:51:20.392Z,71.24
2022-10-10T21:53:47.579Z,71.29
2022-10-10T21:56:14.499Z,71.05
2022-10-10T21:58:42.691Z,71.22
2022-10-10T22:01:17.336Z,71.17
2022-10-10T22:03:45.777Z,71.20
2022-10-10T22:06:14.730Z,71.13
2022-10-10T22:08:42.328Z,71.08
2022-10-10T22:11:12.618Z,71.11
2022-10-10T22:13:39.538Z,71.03
2022-10-10T22:16:07.915Z,71.29
2022-10-10T22:18:35.519Z,71.09
2022-10-10T22:21:04.403Z,71.08
2022-10-10T22:23:31.141Z,71.11
2022-10-10T22:25:58.106Z,71.13
2022-10-10T22:28:25.065Z,70.93
2022-10-10T22:30:51.800Z,70.76
2022-10-10T22:33:18.493Z,70.77
2022-10-10T22:35:45.265Z,70.73
2022-10-10T22:38:12.012Z,70.48
2022-10-10T22:40:38.729Z,70.76
2022-10-10T22:43:05.482Z,70.80
2022-10-10T22:45:32.188Z,70.84
2022-10-10T22:47:58.956Z,70.81
2022-10-10T22:50:25.644Z,70.89
2022-10-10T22:52:52.343Z,71.01
2022-10-10T22:55:19.181Z,70.55
2022-10-10T22:57:46.128Z,70.49
2022-10-10T23:00:13.517Z,70.59
2022-10-10T23:02:40.238Z,70.39
2022-10-10T23:05:07.452Z,70.48
2022-10-10T23:07:34.494Z,70.38
2022-10-10T23:10:01.253Z,70.30
2022-10-10T23:12:27.977Z,70.26
2022-10-10T23:14:54.770Z,70.21
2022-10-10T23:17:21.488Z,70.38
2022-10-10T23:19:48.212Z,70.44
2022-10-10T23:22:14.961Z,70.33
2022-10-10T23:24:41.774Z,70.39
2022-10-10T23:27:08.499Z,70.27
2022-10-10T23:29:35.273Z,70.14
2022-10-10T23:32:01.989Z,70.11
2022-10-10T23:34:28.755Z,70.28
2022-10-10T23:36:55.472Z,70.22
2022-10-10T23:39:22.344Z,70.11
2022-10-10T23:41:49.079Z,70.08
2022-10-10T23:44:15.853Z,70.12
2022-10-10T23:46:42.545Z,70.05
2022-10-10T23:49:09.771Z,70.14
2022-10-10T23:51:36.529Z,69.94
2022-10-10T23:54:03.274Z,69.92
2022-10-10T23:56:29.969Z,70.03
2022-10-10T23:58:56.716Z,69.80
